sensor_id;sensor_type;location;lat;lon;timestamp;pressure;altitude;pressure_sealevel;temperature;humidity
5500;BME280;2772;42.700;23.304;2023-04-06T00:00:03;94908.91;;;2.63;100.00
5500;BME280;2772;42.700;23.304;2023-04-06T00:02:33;94909.44;;;2.60;100.00
5500;BME280;2772;42.700;23.304;2023-04-06T00:05:00;94907.06;;;2.53;100.00
5500;BME280;2772;42.700;23.304;2023-04-06T00:07:26;94901.78;;;2.48;100.00
5500;BME280;2772;42.700;23.304;2023-04-06T00:09:54;94902.03;;;2.47;100.00
5500;BME280;2772;42.700;23.304;2023-04-06T00:12:21;94892.03;;;2.24;100.00
5500;BME280;2772;42.700;23.304;2023-04-06T00:14:48;94891.50;;;2.27;100.00
5500;BME280;2772;42.700;23.304;2023-04-06T00:17:15;94893.81;;;2.08;100.00
5500;BME280;2772;42.700;23.304;2023-04-06T00:19:42;94883.34;;;2.18;100.00
5500;BME280;2772;42.700;23.304;2023-04-06T00:22:08;94889.66;;;2.12;100.00
5500;BME280;2772;42.700;23.304;2023-04-06T00:24:35;94885.97;;;2.18;100.00
5500;BME280;2772;42.700;23.304;2023-04-06T00:27:04;94885.44;;;2.16;100.00
5500;BME280;2772;42.700;23.304;2023-04-06T00:29:30;94880.69;;;2.08;100.00
5500;BME280;2772;42.700;23.304;2023-04-06T00:31:57;94869.69;;;2.21;100.00
5500;BME280;2772;42.700;23.304;2023-04-06T00:34:24;94868.63;;;2.17;100.00
5500;BME280;2772;42.700;23.304;2023-04-06T00:36:51;94875.19;;;2.15;100.00
5500;BME280;2772;42.700;23.304;2023-04-06T00:39:17;94867.06;;;2.16;100.00
5500;BME280;2772;42.700;23.304;2023-04-06T00:41:46;94866.75;;;2.08;100.00
5500;BME280;2772;42.700;23.304;2023-04-06T00:44:16;94869.19;;;2.24;100.00
5500;BME280;2772;42.700;23.304;2023-04-06T00:46:43;94871.28;;;2.22;100.00
5500;BME280;2772;42.700;23.304;2023-04-06T00:49:10;94867.34;;;2.35;100.00
5500;BME280;2772;42.700;23.304;2023-04-06T00:51:37;94867.13;;;2.46;100.00
5500;BME280;2772;42.700;23.304;2023-04-06T00:54:04;94865.56;;;2.60;100.00
5500;BME280;2772;42.700;23.304;2023-04-06T00:56:31;94860.03;;;2.62;100.00
5500;BME280;2772;42.700;23.304;2023-04-06T00:58:58;94865.03;;;2.63;100.00
5500;BME280;2772;42.700;23.304;2023-04-06T01:01:26;94866.59;;;2.69;100.00
5500;BME280;2772;42.700;23.304;2023-04-06T01:03:53;94860.53;;;2.69;100.00
5500;BME280;2772;42.700;23.304;2023-04-06T01:06:21;94859.75;;;2.63;100.00
5500;BME280;2772;42.700;23.304;2023-04-06T01:08:47;94860.28;;;2.70;100.00
5500;BME280;2772;42.700;23.304;2023-04-06T01:11:14;94865.03;;;2.68;100.00
5500;BME280;2772;42.700;23.304;2023-04-06T01:13:41;94867.38;;;2.85;100.00
5500;BME280;2772;42.700;23.304;2023-04-06T01:16:08;94871.06;;;2.84;100.00
5500;BME280;2772;42.700;23.304;2023-04-06T01:18:37;94858.69;;;2.89;100.00
5500;BME280;2772;42.700;23.304;2023-04-06T01:21:04;94859.22;;;2.86;100.00
5500;BME280;2772;42.700;23.304;2023-04-06T01:23:35;94867.09;;;3.01;100.00
5500;BME280;2772;42.700;23.304;2023-04-06T01:26:02;94858.97;;;2.93;100.00
5500;BME280;2772;42.700;23.304;2023-04-06T01:28:28;94861.06;;;2.91;100.00
5500;BME280;2772;42.700;23.304;2023-04-06T01:30:55;94860.03;;;2.82;100.00
5500;BME280;2772;42.700;23.304;2023-04-06T01:33:22;94859.50;;;2.90;100.00
5500;BME280;2772;42.700;23.304;2023-04-06T01:35:49;94850.81;;;2.99;100.00
5500;BME280;2772;42.700;23.304;2023-04-06T01:38:15;94846.84;;;3.12;100.00
5500;BME280;2772;42.700;23.304;2023-04-06T01:40:43;94846.31;;;3.10;100.00
5500;BME280;2772;42.700;23.304;2023-04-06T01:43:10;94853.13;;;3.16;100.00
5500;BME280;2772;42.700;23.304;2023-04-06T01:45:37;94849.44;;;3.27;100.00
5500;BME280;2772;42.700;23.304;2023-04-06T01:48:04;94851.31;;;3.21;100.00
5500;BME280;2772;42.700;23.304;2023-04-06T01:50:31;94847.34;;;3.29;100.00
5500;BME280;2772;42.700;23.304;2023-04-06T01:52:58;94846.53;;;3.28;100.00
5500;BME280;2772;42.700;23.304;2023-04-06T01:55:25;94842.56;;;3.36;100.00
5500;BME280;2772;42.700;23.304;2023-04-06T01:57:53;94836.81;;;3.19;100.00
5500;BME280;2772;42.700;23.304;2023-04-06T02:00:20;94836.81;;;3.29;100.00
5500;BME280;2772;42.700;23.304;2023-04-06T02:02:46;94832.84;;;3.26;100.00
5500;BME280;2772;42.700;23.304;2023-04-06T02:05:13;94834.72;;;3.26;100.00
5500;BME280;2772;42.700;23.304;2023-04-06T02:07:40;94832.59;;;3.28;100.00
5500;BME280;2772;42.700;23.304;2023-04-06T02:10:11;94825.16;;;3.50;100.00
5500;BME280;2772;42.700;23.304;2023-04-06T02:12:38;94821.50;;;3.36;100.00
5500;BME280;2772;42.700;23.304;2023-04-06T02:15:07;94829.19;;;3.22;100.00
5500;BME280;2772;42.700;23.304;2023-04-06T02:17:34;94828.97;;;3.04;100.00
5500;BME280;2772;42.700;23.304;2023-04-06T02:20:01;94827.84;;;3.25;100.00
5500;BME280;2772;42.700;23.304;2023-04-06T02:22:28;94826.03;;;3.20;100.00
5500;BME280;2772;42.700;23.304;2023-04-06T02:24:54;94816.31;;;3.21;100.00
5500;BME280;2772;42.700;23.304;2023-04-06T02:27:21;94821.50;;;3.36;100.00
5500;BME280;2772;42.700;23.304;2023-04-06T02:29:48;94825.75;;;3.32;100.00
5500;BME280;2772;42.700;23.304;2023-04-06T02:32:16;94826.56;;;3.28;100.00
5500;BME280;2772;42.700;23.304;2023-04-06T02:34:43;94830.69;;;3.44;100.00
5500;BME280;2772;42.700;23.304;2023-04-06T02:37:10;94813.81;;;3.55;100.00
5500;BME280;2772;42.700;23.304;2023-04-06T02:39:36;94825.41;;;3.54;100.00
5500;BME280;2772;42.700;23.304;2023-04-06T02:42:03;94831.00;;;3.32;100.00
5500;BME280;2772;42.700;23.304;2023-04-06T02:44:30;94835.75;;;3.25;100.00
5500;BME280;2772;42.700;23.304;2023-04-06T02:46:56;94829.41;;;3.31;100.00
5500;BME280;2772;42.700;23.304;2023-04-06T02:49:24;94838.09;;;3.37;100.00
5500;BME280;2772;42.700;23.304;2023-04-06T02:51:51;94821.50;;;3.46;100.00
5500;BME280;2772;42.700;23.304;2023-04-06T02:54:18;94826.22;;;3.49;100.00
5500;BME280;2772;42.700;23.304;2023-04-06T02:56:45;94819.16;;;3.29;100.00
5500;BME280;2772;42.700;23.304;2023-04-06T02:59:11;94831.00;;;3.32;100.00
5500;BME280;2772;42.700;23.304;2023-04-06T03:01:38;94831.03;;;3.27;100.00
5500;BME280;2772;42.700;23.304;2023-04-06T03:04:05;94826.22;;;3.54;100.00
5500;BME280;2772;42.700;23.304;2023-04-06T03:06:33;94824.94;;;3.42;100.00
5500;BME280;2772;42.700;23.304;2023-04-06T03:09:00;94825.75;;;3.37;100.00
5500;BME280;2772;42.700;23.304;2023-04-06T03:11:27;94828.91;;;3.29;100.00
5500;BME280;2772;42.700;23.304;2023-04-06T03:13:53;94822.78;;;3.49;100.00
5500;BME280;2772;42.700;23.304;2023-04-06T03:16:20;94826.78;;;3.31;100.00
5500;BME280;2772;42.700;23.304;2023-04-06T03:18:47;94835.00;;;3.24;100.00
5500;BME280;2772;42.700;23.304;2023-04-06T03:21:14;94833.44;;;3.13;100.00
5500;BME280;2772;42.700;23.304;2023-04-06T03:23:43;94832.38;;;3.14;100.00
5500;BME280;2772;42.700;23.304;2023-04-06T03:26:09;94825.75;;;3.22;100.00
5500;BME280;2772;42.700;23.304;2023-04-06T03:28:36;94826.31;;;3.14;100.00
5500;BME280;2772;42.700;23.304;2023-04-06T03:31:03;94828.72;;;2.90;100.00
5500;BME280;2772;42.700;23.304;2023-04-06T03:33:30;94834.50;;;2.92;100.00
5500;BME280;2772;42.700;23.304;2023-04-06T03:35:56;94829.50;;;2.91;100.00
5500;BME280;2772;42.700;23.304;2023-04-06T03:38:23;94827.41;;;2.88;100.00
5500;BME280;2772;42.700;23.304;2023-04-06T03:40:51;94827.41;;;2.98;100.00
5500;BME280;2772;42.700;23.304;2023-04-06T03:43:18;94832.41;;;2.99;100.00
5500;BME280;2772;42.700;23.304;2023-04-06T03:45:45;94830.03;;;2.98;100.00
5500;BME280;2772;42.700;23.304;2023-04-06T03:48:11;94819.22;;;3.04;100.00
5500;BME280;2772;42.700;23.304;2023-04-06T03:50:38;94832.09;;;3.16;100.00
5500;BME280;2772;42.700;23.304;2023-04-06T03:53:05;94831.81;;;3.17;100.00
5500;BME280;2772;42.700;23.304;2023-04-06T03:55:31;94825.50;;;3.18;100.00
5500;BME280;2772;42.700;23.304;2023-04-06T03:57:59;94829.19;;;3.28;100.00
5500;BME280;2772;42.700;23.304;2023-04-06T04:00:26;94835.19;;;3.38;100.00
5500;BME280;2772;42.700;23.304;2023-04-06T04:02:53;94833.88;;;3.41;100.00
5500;BME280;2772;42.700;23.304;2023-04-06T04:05:20;94831.00;;;3.32;100.00
5500;BME280;2772;42.700;23.304;2023-04-06T04:07:50;94833.91;;;3.36;100.00
5500;BME280;2772;42.700;23.304;2023-04-06T04:10:17;94828.13;;;3.28;100.00
5500;BME280;2772;42.700;23.304;2023-04-06T04:12:43;94826.28;;;3.34;100.00
5500;BME280;2772;42.700;23.304;2023-04-06T04:15:12;94825.22;;;3.25;100.00
5500;BME280;2772;42.700;23.304;2023-04-06T04:17:38;94829.19;;;3.28;100.00
5500;BME280;2772;42.700;23.304;2023-04-06T04:20:06;94832.09;;;3.16;100.00
5500;BME280;2772;42.700;23.304;2023-04-06T04:22:33;94825.22;;;3.25;100.00
5500;BME280;2772;42.700;23.304;2023-04-06T04:25:00;94821.09;;;3.04;100.00
5500;BME280;2772;42.700;23.304;2023-04-06T04:27:27;94823.72;;;3.09;100.00
5500;BME280;2772;42.700;23.304;2023-04-06T04:29:54;94822.63;;;3.15;100.00
5500;BME280;2772;42.700;23.304;2023-04-06T04:32:22;94815.78;;;3.19;100.00
5500;BME280;2772;42.700;23.304;2023-04-06T04:34:52;94825.25;;;3.20;100.00
5500;BME280;2772;42.700;23.304;2023-04-06T04:37:19;94831.28;;;3.20;100.00
5500;BME280;2772;42.700;23.304;2023-04-06T04:39:46;94835.00;;;3.14;100.00
5500;BME280;2772;42.700;23.304;2023-04-06T04:42:13;94818.66;;;3.22;100.00
5500;BME280;2772;42.700;23.304;2023-04-06T04:44:40;94824.47;;;3.19;100.00
5500;BME280;2772;42.700;23.304;2023-04-06T04:47:06;94829.72;;;3.14;100.00
5500;BME280;2772;42.700;23.304;2023-04-06T04:49:34;94831.88;;;2.92;100.00
5500;BME280;2772;42.700;23.304;2023-04-06T04:52:01;94828.22;;;2.83;100.00
5500;BME280;2772;42.700;23.304;2023-04-06T04:54:28;94824.00;;;2.77;100.00
5500;BME280;2772;42.700;23.304;2023-04-06T04:56:54;94829.00;;;2.84;100.00
5500;BME280;2772;42.700;23.304;2023-04-06T04:59:21;94825.03;;;2.86;100.00
5500;BME280;2772;42.700;23.304;2023-04-06T05:01:48;94834.00;;;2.85;100.00
5500;BME280;2772;42.700;23.304;2023-04-06T05:04:15;94833.19;;;2.90;100.00
5500;BME280;2772;42.700;23.304;2023-04-06T05:06:43;94833.19;;;2.85;100.00
5500;BME280;2772;42.700;23.304;2023-04-06T05:09:10;94830.03;;;2.83;100.00
5500;BME280;2772;42.700;23.304;2023-04-06T05:11:36;94826.88;;;2.86;100.00
5500;BME280;2772;42.700;23.304;2023-04-06T05:14:03;94833.19;;;2.80;100.00
5500;BME280;2772;42.700;23.304;2023-04-06T05:16:31;94833.69;;;2.97;100.00
5500;BME280;2772;42.700;23.304;2023-04-06T05:18:58;94828.97;;;3.04;100.00
5500;BME280;2772;42.700;23.304;2023-04-06T05:21:25;94815.28;;;3.07;100.00
5500;BME280;2772;42.700;23.304;2023-04-06T05:23:54;94816.09;;;2.97;100.00
5500;BME280;2772;42.700;23.304;2023-04-06T05:26:21;94824.22;;;3.11;100.00
5500;BME280;2772;42.700;23.304;2023-04-06T05:28:48;94831.59;;;3.09;100.00
5500;BME280;2772;42.700;23.304;2023-04-06T05:31:15;94823.72;;;3.04;100.00
5500;BME280;2772;42.700;23.304;2023-04-06T05:33:41;94831.34;;;3.05;100.00
5500;BME280;2772;42.700;23.304;2023-04-06T05:36:08;94832.09;;;3.21;100.00
5500;BME280;2772;42.700;23.304;2023-04-06T05:38:35;94820.50;;;3.22;100.00
5500;BME280;2772;42.700;23.304;2023-04-06T05:41:03;94817.59;;;3.23;100.00
5500;BME280;2772;42.700;23.304;2023-04-06T05:43:30;94819.19;;;3.24;100.00
5500;BME280;2772;42.700;23.304;2023-04-06T05:45:57;94819.94;;;3.35;100.00
5500;BME280;2772;42.700;23.304;2023-04-06T05:48:24;94814.16;;;3.33;100.00
5500;BME280;2772;42.700;23.304;2023-04-06T05:50:51;94822.31;;;3.37;100.00
5500;BME280;2772;42.700;23.304;2023-04-06T05:53:18;94802.00;;;4.01;100.00
5500;BME280;2772;42.700;23.304;2023-04-06T05:55:46;94804.28;;;4.12;100.00
5500;BME280;2772;42.700;23.304;2023-04-06T05:58:14;94791.72;;;4.71;100.00
5500;BME280;2772;42.700;23.304;2023-04-06T06:00:42;94804.00;;;4.19;100.00
5500;BME280;2772;42.700;23.304;2023-04-06T06:03:11;94806.44;;;4.10;100.00
5500;BME280;2772;42.700;23.304;2023-04-06T06:05:38;94809.50;;;3.79;100.00
5500;BME280;2772;42.700;23.304;2023-04-06T06:08:05;94805.81;;;3.80;100.00
5500;BME280;2772;42.700;23.304;2023-04-06T06:10:32;94809.28;;;3.70;100.00
5500;BME280;2772;42.700;23.304;2023-04-06T06:12:59;94810.59;;;3.68;100.00
5500;BME280;2772;42.700;23.304;2023-04-06T06:15:27;94806.44;;;3.62;100.00
5500;BME280;2772;42.700;23.304;2023-04-06T06:17:53;94803.00;;;3.61;100.00
5500;BME280;2772;42.700;23.304;2023-04-06T06:20:20;94801.88;;;3.82;100.00
5500;BME280;2772;42.700;23.304;2023-04-06T06:22:47;94799.97;;;3.88;100.00
5500;BME280;2772;42.700;23.304;2023-04-06T06:25:14;94800.66;;;4.03;100.00
5500;BME280;2772;42.700;23.304;2023-04-06T06:27:41;94808.56;;;4.08;100.00
5500;BME280;2772;42.700;23.304;2023-04-06T06:30:08;94807.47;;;4.14;100.00
5500;BME280;2772;42.700;23.304;2023-04-06T06:32:36;94814.06;;;4.12;100.00
5500;BME280;2772;42.700;23.304;2023-04-06T06:35:04;94796.91;;;4.14;100.00
5500;BME280;2772;42.700;23.304;2023-04-06T06:37:30;94819.63;;;4.10;100.00
5500;BME280;2772;42.700;23.304;2023-04-06T06:39:57;94804.78;;;4.19;100.00
5500;BME280;2772;42.700;23.304;2023-04-06T06:42:24;94802.06;;;4.29;100.00
5500;BME280;2772;42.700;23.304;2023-04-06T06:44:51;94810.78;;;4.30;100.00
5500;BME280;2772;42.700;23.304;2023-04-06T06:47:18;94810.81;;;4.25;100.00
5500;BME280;2772;42.700;23.304;2023-04-06T06:49:46;94821.78;;;3.98;100.00
5500;BME280;2772;42.700;23.304;2023-04-06T06:52:13;94817.47;;;4.12;100.00
5500;BME280;2772;42.700;23.304;2023-04-06T06:54:40;94828.28;;;4.11;100.00
5500;BME280;2772;42.700;23.304;2023-04-06T06:57:06;94821.78;;;3.98;100.00
5500;BME280;2772;42.700;23.304;2023-04-06T06:59:33;94827.56;;;4.00;100.00
5500;BME280;2772;42.700;23.304;2023-04-06T07:02:00;94820.16;;;4.07;100.00
5500;BME280;2772;42.700;23.304;2023-04-06T07:04:26;94812.97;;;4.18;100.00
5500;BME280;2772;42.700;23.304;2023-04-06T07:06:55;94831.06;;;4.29;100.00
5500;BME280;2772;42.700;23.304;2023-04-06T07:09:21;94820.88;;;4.18;100.00
5500;BME280;2772;42.700;23.304;2023-04-06T07:11:48;94813.44;;;4.25;100.00
5500;BME280;2772;42.700;23.304;2023-04-06T07:14:15;94815.19;;;4.39;100.00
5500;BME280;2772;42.700;23.304;2023-04-06T07:16:42;94812.09;;;4.32;100.00
5500;BME280;2772;42.700;23.304;2023-04-06T07:19:10;94836.50;;;4.04;100.00
5500;BME280;2772;42.700;23.304;2023-04-06T07:21:37;94820.06;;;4.22;100.00
5500;BME280;2772;42.700;23.304;2023-04-06T07:24:05;94819.38;;;4.45;100.00
5500;BME280;2772;42.700;23.304;2023-04-06T07:26:32;94817.72;;;4.54;100.00
5500;BME280;2772;42.700;23.304;2023-04-06T07:28:59;94817.28;;;4.42;100.00
5500;BME280;2772;42.700;23.304;2023-04-06T07:31:25;94817.72;;;4.54;100.00
5500;BME280;2772;42.700;23.304;2023-04-06T07:33:52;94814.91;;;4.41;100.00
5500;BME280;2772;42.700;23.304;2023-04-06T07:36:20;94810.63;;;4.50;100.00
5500;BME280;2772;42.700;23.304;2023-04-06T07:38:46;94811.88;;;4.57;100.00
5500;BME280;2772;42.700;23.304;2023-04-06T07:41:15;94807.16;;;4.88;100.00
5500;BME280;2772;42.700;23.304;2023-04-06T07:43:42;94823.53;;;4.85;100.00
5500;BME280;2772;42.700;23.304;2023-04-06T07:46:09;94809.03;;;4.82;100.00
5500;BME280;2772;42.700;23.304;2023-04-06T07:48:36;94814.00;;;4.89;100.00
5500;BME280;2772;42.700;23.304;2023-04-06T07:51:04;94814.19;;;4.98;100.00
5500;BME280;2772;42.700;23.304;2023-04-06T07:53:31;94806.72;;;5.05;100.00
5500;BME280;2772;42.700;23.304;2023-04-06T07:55:58;94804.03;;;5.10;100.00
5500;BME280;2772;42.700;23.304;2023-04-06T07:58:27;94799.72;;;5.19;100.00
5500;BME280;2772;42.700;23.304;2023-04-06T08:00:53;94805.25;;;5.46;100.00
5500;BME280;2772;42.700;23.304;2023-04-06T08:03:21;94799.06;;;5.55;100.00
5500;BME280;2772;42.700;23.304;2023-04-06T08:05:51;94808.16;;;5.68;100.00
5500;BME280;2772;42.700;23.304;2023-04-06T08:08:18;94791.81;;;5.42;100.00
5500;BME280;2772;42.700;23.304;2023-04-06T08:10:46;94802.72;;;5.83;100.00
5500;BME280;2772;42.700;23.304;2023-04-06T08:13:13;94793.63;;;5.89;100.00
5500;BME280;2772;42.700;23.304;2023-04-06T08:15:42;94805.09;;;6.21;100.00
5500;BME280;2772;42.700;23.304;2023-04-06T08:18:09;94806.03;;;6.30;99.11
5500;BME280;2772;42.700;23.304;2023-04-06T08:20:37;94807.25;;;6.38;94.86
5500;BME280;2772;42.700;23.304;2023-04-06T08:23:04;94808.44;;;6.45;95.37
5500;BME280;2772;42.700;23.304;2023-04-06T08:25:33;94809.66;;;6.53;93.48
5500;BME280;2772;42.700;23.304;2023-04-06T08:28:00;94811.31;;;6.49;92.76
5500;BME280;2772;42.700;23.304;2023-04-06T08:30:27;94815.09;;;6.62;95.84
5500;BME280;2772;42.700;23.304;2023-04-06T08:32:55;94803.13;;;6.64;95.04
5500;BME280;2772;42.700;23.304;2023-04-06T08:35:22;94816.97;;;6.75;91.09
5500;BME280;2772;42.700;23.304;2023-04-06T08:37:49;94802.72;;;6.38;89.17
5500;BME280;2772;42.700;23.304;2023-04-06T08:40:15;94810.69;;;6.71;98.71
5500;BME280;2772;42.700;23.304;2023-04-06T08:42:46;94810.91;;;6.74;96.77
5500;BME280;2772;42.700;23.304;2023-04-06T08:45:16;94808.41;;;6.64;95.23
5500;BME280;2772;42.700;23.304;2023-04-06T08:47:43;94817.94;;;6.46;90.95
5500;BME280;2772;42.700;23.304;2023-04-06T08:50:11;94810.75;;;6.15;91.11
5500;BME280;2772;42.700;23.304;2023-04-06T08:52:39;94810.75;;;6.15;92.79
5500;BME280;2772;42.700;23.304;2023-04-06T08:55:07;94799.94;;;6.11;93.12
5500;BME280;2772;42.700;23.304;2023-04-06T08:57:36;94800.59;;;6.03;94.85
5500;BME280;2772;42.700;23.304;2023-04-06T09:00:03;94814.81;;;6.26;94.85
5500;BME280;2772;42.700;23.304;2023-04-06T09:02:30;94803.88;;;6.14;95.11
5500;BME280;2772;42.700;23.304;2023-04-06T09:04:58;94810.19;;;6.18;93.56
5500;BME280;2772;42.700;23.304;2023-04-06T09:07:26;94806.44;;;6.19;91.50
5500;BME280;2772;42.700;23.304;2023-04-06T09:09:54;94820.59;;;6.28;90.95
5500;BME280;2772;42.700;23.304;2023-04-06T09:12:25;94808.44;;;6.45;89.56
5500;BME280;2772;42.700;23.304;2023-04-06T09:14:53;94804.03;;;6.41;88.97
5500;BME280;2772;42.700;23.304;2023-04-06T09:17:21;94795.94;;;6.32;90.09
5500;BME280;2772;42.700;23.304;2023-04-06T09:19:49;94788.72;;;6.38;89.90
5500;BME280;2772;42.700;23.304;2023-04-06T09:22:15;94797.16;;;6.40;92.44
5500;BME280;2772;42.700;23.304;2023-04-06T09:24:45;94799.31;;;6.38;92.95
5500;BME280;2772;42.700;23.304;2023-04-06T09:27:12;94793.09;;;6.47;96.36
5500;BME280;2772;42.700;23.304;2023-04-06T09:29:40;94797.53;;;6.33;90.04
5500;BME280;2772;42.700;23.304;2023-04-06T09:32:08;94799.13;;;6.48;93.66
5500;BME280;2772;42.700;23.304;2023-04-06T09:34:37;94794.31;;;6.36;90.35
5500;BME280;2772;42.700;23.304;2023-04-06T09:37:12;94799.88;;;6.35;87.39
5500;BME280;2772;42.700;23.304;2023-04-06T09:39:39;94788.16;;;6.41;87.61
5500;BME280;2772;42.700;23.304;2023-04-06T09:42:08;94795.25;;;6.59;88.33
5500;BME280;2772;42.700;23.304;2023-04-06T09:44:35;94795.47;;;6.63;87.68
5500;BME280;2772;42.700;23.304;2023-04-06T09:47:03;94781.22;;;6.77;88.17
5500;BME280;2772;42.700;23.304;2023-04-06T09:49:32;94787.09;;;6.74;87.00
5500;BME280;2772;42.700;23.304;2023-04-06T09:52:02;94787.34;;;6.91;88.10
5500;BME280;2772;42.700;23.304;2023-04-06T09:54:30;94784.22;;;7.03;87.97
5500;BME280;2772;42.700;23.304;2023-04-06T09:57:02;94796.38;;;7.04;86.33
5500;BME280;2772;42.700;23.304;2023-04-06T09:59:39;94791.41;;;7.29;83.59
5500;BME280;2772;42.700;23.304;2023-04-06T10:02:15;94797.13;;;7.36;82.14
5500;BME280;2772;42.700;23.304;2023-04-06T10:04:50;94796.53;;;7.39;79.05
5500;BME280;2772;42.700;23.304;2023-04-06T10:07:20;94792.88;;;7.35;79.31
5500;BME280;2772;42.700;23.304;2023-04-06T10:09:48;94797.63;;;7.38;76.63
5500;BME280;2772;42.700;23.304;2023-04-06T10:12:16;94792.09;;;7.62;79.44
5500;BME280;2772;42.700;23.304;2023-04-06T10:14:44;94790.94;;;7.41;76.98
5500;BME280;2772;42.700;23.304;2023-04-06T10:17:11;94781.13;;;7.41;76.50
5500;BME280;2772;42.700;23.304;2023-04-06T10:19:46;94784.16;;;7.35;77.04
5500;BME280;2772;42.700;23.304;2023-04-06T10:22:22;94788.00;;;7.42;77.71
5500;BME280;2772;42.700;23.304;2023-04-06T10:24:50;94791.31;;;7.48;77.42
5500;BME280;2772;42.700;23.304;2023-04-06T10:27:27;94772.28;;;7.73;79.35
5500;BME280;2772;42.700;23.304;2023-04-06T10:30:02;94774.63;;;7.74;75.51
5500;BME280;2772;42.700;23.304;2023-04-06T10:32:33;94772.97;;;7.78;75.64
5500;BME280;2772;42.700;23.304;2023-04-06T10:35:08;94765.00;;;7.92;76.33
5500;BME280;2772;42.700;23.304;2023-04-06T10:37:50;94765.59;;;7.89;75.69
5500;BME280;2772;42.700;23.304;2023-04-06T10:40:22;94751.66;;;7.83;76.60
5500;BME280;2772;42.700;23.304;2023-04-06T10:42:49;94767.56;;;7.83;73.85
5500;BME280;2772;42.700;23.304;2023-04-06T10:45:21;94778.56;;;7.63;75.14
5500;BME280;2772;42.700;23.304;2023-04-06T10:47:49;94763.84;;;7.57;76.94
5500;BME280;2772;42.700;23.304;2023-04-06T10:50:18;94755.91;;;7.44;78.35
5500;BME280;2772;42.700;23.304;2023-04-06T10:52:46;94769.28;;;7.52;76.33
5500;BME280;2772;42.700;23.304;2023-04-06T10:55:13;94771.00;;;7.43;76.24
5500;BME280;2772;42.700;23.304;2023-04-06T10:57:41;94772.50;;;7.36;78.00
5500;BME280;2772;42.700;23.304;2023-04-06T11:00:08;94773.19;;;7.55;78.82
5500;BME280;2772;42.700;23.304;2023-04-06T11:02:37;94766.50;;;7.57;78.24
5500;BME280;2772;42.700;23.304;2023-04-06T11:05:04;94760.50;;;7.65;75.32
5500;BME280;2772;42.700;23.304;2023-04-06T11:07:31;94763.25;;;7.60;75.03
5500;BME280;2772;42.700;23.304;2023-04-06T11:09:58;94762.09;;;7.53;76.13
5500;BME280;2772;42.700;23.304;2023-04-06T11:12:26;94746.38;;;7.56;77.19
5500;BME280;2772;42.700;23.304;2023-04-06T11:14:55;94747.34;;;7.60;75.31
5500;BME280;2772;42.700;23.304;2023-04-06T11:17:27;94743.66;;;7.61;74.69
5500;BME280;2772;42.700;23.304;2023-04-06T11:19:57;94769.84;;;7.63;74.09
5500;BME280;2772;42.700;23.304;2023-04-06T11:22:24;94746.28;;;7.61;73.38
5500;BME280;2772;42.700;23.304;2023-04-06T11:24:51;94743.41;;;7.71;72.10
5500;BME280;2772;42.700;23.304;2023-04-06T11:27:19;94731.06;;;7.80;73.05
5500;BME280;2772;42.700;23.304;2023-04-06T11:29:46;94726.13;;;7.87;70.52
5500;BME280;2772;42.700;23.304;2023-04-06T11:32:20;94745.00;;;7.72;69.93
5500;BME280;2772;42.700;23.304;2023-04-06T11:34:47;94739.38;;;7.87;73.29
5500;BME280;2772;42.700;23.304;2023-04-06T11:37:16;94742.44;;;7.67;72.70
5500;BME280;2772;42.700;23.304;2023-04-06T11:39:47;94726.31;;;7.91;73.98
5500;BME280;2772;42.700;23.304;2023-04-06T11:42:21;94721.66;;;7.96;69.97
5500;BME280;2772;42.700;23.304;2023-04-06T11:44:51;94723.75;;;8.22;70.43
5500;BME280;2772;42.700;23.304;2023-04-06T11:47:18;94715.00;;;8.35;73.93
5500;BME280;2772;42.700;23.304;2023-04-06T11:49:47;94715.72;;;8.49;72.52
5500;BME280;2772;42.700;23.304;2023-04-06T11:52:17;94721.34;;;8.47;68.80
5500;BME280;2772;42.700;23.304;2023-04-06T11:54:45;94720.91;;;8.18;68.00
5500;BME280;2772;42.700;23.304;2023-04-06T11:57:12;94708.63;;;8.22;70.97
5500;BME280;2772;42.700;23.304;2023-04-06T11:59:40;94711.84;;;8.33;69.13
5500;BME280;2772;42.700;23.304;2023-04-06T12:02:06;94721.34;;;8.12;68.92
5500;BME280;2772;42.700;23.304;2023-04-06T12:04:33;94707.47;;;7.92;70.67
5500;BME280;2772;42.700;23.304;2023-04-06T12:07:00;94719.41;;;8.03;71.17
5500;BME280;2772;42.700;23.304;2023-04-06T12:09:28;94710.41;;;8.27;73.98
5500;BME280;2772;42.700;23.304;2023-04-06T12:11:55;94712.94;;;8.32;72.28
5500;BME280;2772;42.700;23.304;2023-04-06T12:14:22;94706.56;;;8.33;71.96
5500;BME280;2772;42.700;23.304;2023-04-06T12:16:49;94696.88;;;8.59;70.48
5500;BME280;2772;42.700;23.304;2023-04-06T12:19:16;94713.38;;;8.69;69.52
5500;BME280;2772;42.700;23.304;2023-04-06T12:21:42;94708.66;;;8.66;67.43
5500;BME280;2772;42.700;23.304;2023-04-06T12:24:09;94701.81;;;8.74;68.11
5500;BME280;2772;42.700;23.304;2023-04-06T12:26:37;94694.47;;;8.71;65.99
5500;BME280;2772;42.700;23.304;2023-04-06T12:29:04;94700.13;;;8.78;65.24
5500;BME280;2772;42.700;23.304;2023-04-06T12:31:33;94691.16;;;8.65;65.01
5500;BME280;2772;42.700;23.304;2023-04-06T12:34:01;94702.50;;;8.57;64.13
5500;BME280;2772;42.700;23.304;2023-04-06T12:36:28;94695.88;;;8.46;68.22
5500;BME280;2772;42.700;23.304;2023-04-06T12:38:56;94685.38;;;8.63;65.43
5500;BME280;2772;42.700;23.304;2023-04-06T12:41:23;94696.75;;;8.64;68.31
5500;BME280;2772;42.700;23.304;2023-04-06T12:43:51;94700.94;;;8.56;63.52
5500;BME280;2772;42.700;23.304;2023-04-06T12:46:18;94688.56;;;8.74;65.82
5500;BME280;2772;42.700;23.304;2023-04-06T12:48:45;94694.59;;;8.66;64.05
5500;BME280;2772;42.700;23.304;2023-04-06T12:51:12;94693.66;;;8.62;64.33
5500;BME280;2772;42.700;23.304;2023-04-06T12:53:39;94702.47;;;8.27;65.06
5500;BME280;2772;42.700;23.304;2023-04-06T12:56:12;94686.00;;;8.02;66.71
5500;BME280;2772;42.700;23.304;2023-04-06T12:58:38;94689.94;;;8.05;67.42
5500;BME280;2772;42.700;23.304;2023-04-06T13:01:08;94695.38;;;8.22;67.46
5500;BME280;2772;42.700;23.304;2023-04-06T13:03:36;94691.28;;;8.16;67.77
5500;BME280;2772;42.700;23.304;2023-04-06T13:06:02;94669.97;;;8.07;67.42
5500;BME280;2772;42.700;23.304;2023-04-06T13:08:29;94679.44;;;8.00;68.09
5500;BME280;2772;42.700;23.304;2023-04-06T13:10:56;94673.16;;;8.18;67.47
5500;BME280;2772;42.700;23.304;2023-04-06T13:13:24;94679.22;;;8.32;67.90
5500;BME280;2772;42.700;23.304;2023-04-06T13:15:51;94676.38;;;8.06;66.43